Latest Weather Observations for Dum In Mirrie

IDD60901

Issued at 8:51 pm CST Sunday 24 March 2019 (issued every 10 minutes, with the page automatically refreshed every 10 minutes)

About weather observations | Map of Darwin area stations | Latest observations for Darwin area | Other Formats
Station Details ID: 014277 Name: DUM IN MIRRIE AIRSTRIP Lat: -12.63 Lon: 130.37 Height: 3.5 m
Data from the previous 72 hours. | See also: Recent months at Dum In Mirrie
Date/Time
CST
Temp
°C
App
Temp
°C
Dew
Point
°C
Rel
Hum
%
Delta-T
°C
Wind Press
QNH
hPa
Press
MSL
hPa
Rain since
9am
mm
Dir  Spd
km/h
Gust
km/h
Spd
kts
Gust
kts
24/08:30pm 25.8 30.2 25.1 96 0.5 NNW 11 20 6 11 1007.7 1007.7 73.0
24/08:00pm 25.7 29.9 24.8 95 0.6 NW 11 19 6 10 1007.7 1007.7 72.8
24/07:30pm 25.8 29.8 25.1 96 0.5 WNW 13 26 7 14 1007.9 1007.9 72.4
24/07:00pm 24.2 28.7 24.0 99 0.1 NW 7 15 4 8 1007.6 1007.6 72.4
24/06:30pm 24.5 29.4 24.3 99 0.1 W 6 13 3 7 1008.0 1008.0 64.8
24/06:00pm 24.9 27.4 24.7 99 0.1 WNW 20 35 11 19 1008.1 1008.1 50.0
24/05:30pm 25.7 29.6 25.4 98 0.2 NNW 15 26 8 14 1006.5 1006.5 41.0
24/05:00pm 25.9 32.0 25.7 99 0.1 NNE 4 7 2 4 1006.5 1006.5 41.0
24/04:30pm 25.6 30.2 25.3 98 0.2 NE 11 19 6 10 1006.8 1006.8 35.2
24/04:00pm 26.4 31.2 25.7 96 0.5 WNW 11 20 6 11 1006.5 1006.5 10.4
24/03:30pm 24.8 29.9 24.6 99 0.1 NNW 6 11 3 6 1006.3 1006.3 9.2
24/03:00pm 24.5 29.1 24.2 98 0.2 N 7 15 4 8 1006.6 1006.6 6.8
24/02:30pm 25.1 29.2 23.9 93 0.8 WNW 9 22 5 12 1007.1 1007.1 2.6
24/02:12pm 25.9 25.9 23.0 84 2.0 W 28 50 15 27 1006.6 1006.6 0.0
24/02:00pm 29.0 32.9 24.8 78 2.9 NW 13 28 7 15 1006.6 1006.6 0.0
24/01:30pm 32.5 38.4 27.3 74 3.8 W 11 22 6 12 1006.5 1006.5 0.0
24/01:00pm 32.0 37.7 27.5 77 3.3 W 13 22 7 12 1007.2 1007.2 0.0
24/12:30pm 31.6 37.9 27.3 78 3.1 W 9 20 5 11 1007.8 1007.8 0.0
24/12:00pm 30.8 36.1 26.5 78 3.1 W 11 19 6 10 1007.8 1007.8 0.0
24/11:30am 30.4 35.5 26.1 78 3.1 W 11 24 6 13 1007.8 1007.8 0.0
24/11:00am 29.9 35.6 26.5 82 2.4 WNW 9 19 5 10 1008.2 1008.2 0.0
24/10:30am 30.2 35.6 26.6 81 2.6 WNW 11 22 6 12 1008.1 1008.1 0.0
24/10:00am 30.0 34.9 26.4 81 2.6 WNW 13 28 7 15 1008.2 1008.2 0.0
24/09:30am 29.6 35.0 26.0 81 2.6 WNW 9 19 5 10 1008.2 1008.2 0.0
24/09:00am 29.2 33.3 24.5 76 3.3 W 11 19 6 10 1008.1 1008.1 102.8
24/08:30am 29.1 33.0 24.2 75 3.4 W 11 19 6 10 1007.7 1007.7 102.8
24/08:00am 28.7 32.2 23.6 74 3.5 W 11 20 6 11 1007.0 1007.0 102.8
24/07:30am 28.7 32.9 23.4 73 3.6 W 7 15 4 8 1006.2 1006.2 102.8
24/07:00am 28.6 33.7 25.0 81 2.5 W 7 15 4 8 1005.8 1005.8 102.8
24/06:30am 28.2 31.9 25.2 84 2.1 W 15 26 8 14 1005.7 1005.7 102.8
24/06:00am 29.2 34.3 25.0 78 3.0 WSW 7 20 4 11 1005.2 1005.2 102.8
24/05:30am 28.4 33.0 24.2 78 2.9 W 7 15 4 8 1005.1 1005.1 102.8
24/05:00am 28.0 32.8 24.2 80 2.6 WSW 6 15 3 8 1005.0 1005.0 102.8
24/04:30am 27.2 32.1 25.2 89 1.4 WSW 9 26 5 14 1004.5 1004.5 102.8
24/04:00am 26.3 28.0 24.7 91 1.1 WSW 24 50 13 27 1004.9 1004.9 102.8
24/03:57am 26.3 29.0 24.7 91 1.1 WSW 19 50 10 27 1005.0 1005.0 102.8
24/03:30am 27.9 29.8 23.5 77 3.0 SW 19 41 10 22 1005.3 1005.3 102.6
24/03:00am 29.6 32.8 25.6 79 2.8 W 19 35 10 19 1005.0 1005.0 102.6
24/02:30am 29.4 34.6 26.8 86 1.9 W 13 24 7 13 1005.9 1005.9 102.6
24/02:00am 29.5 34.7 26.9 86 1.9 W 13 24 7 13 1006.1 1006.1 102.6
24/01:30am 29.7 33.8 26.3 82 2.4 W 17 28 9 15 1006.0 1006.0 102.6
24/01:00am 29.7 34.1 26.3 82 2.4 W 15 26 8 14 1005.5 1005.5 102.6
24/12:30am 29.7 34.7 26.5 83 2.3 W 13 20 7 11 1005.7 1005.7 102.6
24/12:00am 29.8 34.0 26.0 80 2.7 W 15 32 8 17 1006.2 1006.2 102.6
 
Date/Time
CST
Temp
°C
App
Temp
°C
Dew
Point
°C
Rel
Hum
%
Delta-T
°C
Wind Press
QNH
hPa
Press
MSL
hPa
Rain since
9am
mm
Dir  Spd
km/h
Gust
km/h
Spd
kts
Gust
kts
23/11:30pm 29.8 35.0 26.8 84 2.2 W 13 28 7 15 1006.2 1006.2 102.6
23/11:00pm 29.8 34.8 26.6 83 2.3 W 13 26 7 14 1006.8 1006.8 102.6
23/10:30pm 29.8 35.5 27.0 85 2.0 W 11 19 6 10 1007.2 1007.2 102.6
23/10:00pm 29.8 34.6 26.2 81 2.6 W 13 26 7 14 1007.0 1007.0 102.6
23/09:30pm 29.7 34.0 26.7 84 2.2 W 17 30 9 16 1006.0 1006.0 102.6
23/09:00pm 29.5 34.2 26.7 85 2.0 W 15 28 8 15 1005.9 1005.9 102.6
23/08:30pm 28.7 34.0 27.5 93 0.9 W 15 30 8 16 1005.0 1005.0 102.6
23/08:00pm 27.8 33.9 27.6 99 0.1 W 11 26 6 14 1005.1 1005.1 102.4
23/07:30pm 25.5 30.8 25.3 99 0.1 WNW 7 19 4 10 1005.9 1005.9 101.8
23/07:00pm 27.1 33.5 26.9 99 0.1 WNW 7 15 4 8 1005.1 1005.1 81.2
23/06:30pm 26.2 31.6 26.0 99 0.1 W 9 28 5 15 1005.6 1005.6 72.0
23/06:00pm 24.1 24.2 23.9 99 0.1 SSW 30 65 16 35 1005.6 1005.6 57.6
23/05:49pm 25.2 26.6 24.2 94 0.7 SSW 24 56 13 30 1005.6 1005.6 42.0
23/05:30pm 28.9 34.9 27.5 92 1.0 W 11 20 6 11 1004.5 1004.5 29.4
23/05:00pm 28.3 34.4 28.1 99 0.1 W 13 26 7 14 1004.6 1004.6 29.2
23/04:30pm 25.4 30.8 24.5 95 0.6 NNE 4 7 2 4 1005.2 1005.2 29.0
23/04:00pm 27.3 30.2 24.4 84 2.0 W 17 35 9 19 1005.0 1005.0 28.6
23/03:30pm 28.9 33.4 26.9 89 1.4 WNW 17 30 9 16 1004.1 1004.1 26.2
23/03:00pm 28.6 32.8 27.0 91 1.2 WNW 19 39 10 21 1003.6 1003.6 25.4
23/02:30pm 25.4 30.6 25.1 98 0.2 NW 7 19 4 10 1004.6 1004.6 25.4
23/02:00pm 24.4 25.6 22.1 87 1.5 NW 19 46 10 25 1004.7 1004.7 20.6
23/01:48pm 25.9 27.3 22.8 83 2.1 W 20 43 11 23 1005.6 1005.6 8.4
23/01:30pm 31.1 35.8 27.2 80 2.8 W 17 30 9 16 1005.2 1005.2 0.2
23/01:00pm 32.7 38.6 27.9 76 3.5 W 13 28 7 15 1005.8 1005.8 0.2
23/12:30pm 32.2 37.5 27.0 74 3.8 W 13 26 7 14 1006.3 1006.3 0.2
23/12:00pm 32.1 37.0 26.9 74 3.8 W 15 28 8 15 1006.7 1006.7 0.2
23/11:30am 31.7 36.4 26.7 75 3.6 W 15 30 8 16 1007.2 1007.2 0.2
23/11:00am 31.3 36.2 27.0 78 3.1 W 15 28 8 15 1007.1 1007.1 0.2
23/10:30am 31.3 35.7 26.3 75 3.6 W 15 28 8 15 1007.0 1007.0 0.2
23/10:00am 31.3 35.2 26.1 74 3.7 W 17 28 9 15 1006.9 1006.9 0.0
23/09:30am 30.5 34.4 26.0 77 3.2 W 17 30 9 16 1006.8 1006.8 0.0
23/09:00am 30.1 33.6 25.4 76 3.3 W 17 30 9 16 1006.7 1006.7 59.2
23/08:30am 30.2 33.5 25.7 77 3.2 W 19 32 10 17 1006.3 1006.3 59.2
23/08:00am 29.7 33.4 24.6 74 3.6 W 13 22 7 12 1005.8 1005.8 59.2
23/07:30am 29.0 31.8 23.7 73 3.7 WSW 15 22 8 12 1005.1 1005.1 59.2
23/07:00am 28.7 33.6 24.3 77 3.1 SW 6 13 3 7 1004.9 1004.9 59.2
23/06:30am 29.1 31.6 23.1 70 4.1 WSW 15 26 8 14 1004.7 1004.7 59.2
23/06:00am 28.5 31.1 22.7 71 4.0 WSW 13 19 7 10 1004.5 1004.5 59.2
23/05:30am 27.9 31.3 24.1 80 2.6 WSW 13 22 7 12 1005.3 1005.3 59.2
23/05:00am 25.5 31.3 24.5 94 0.7 SSW 2 4 1 2 1005.0 1005.0 59.2
23/04:30am 25.6 31.4 24.0 91 1.1 CALM 0 0 0 0 1004.3 1004.3 59.2
23/04:00am 26.6 32.3 23.7 84 2.0 CALM 0 4 0 2 1004.3 1004.3 59.2
23/03:30am 27.7 32.2 23.7 79 2.8 SW 6 17 3 9 1004.5 1004.5 59.2
23/03:00am 26.9 31.3 23.8 83 2.1 WSW 7 15 4 8 1004.6 1004.6 59.2
23/02:30am 25.9 29.8 23.0 84 2.0 W 7 13 4 7 1005.4 1005.4 59.2
23/02:00am 25.4 30.5 24.7 96 0.5 WSW 6 19 3 10 1006.1 1006.1 59.2
23/01:30am 24.7 29.6 24.4 98 0.2 SW 6 15 3 8 1006.9 1006.9 58.6
23/01:00am 24.6 29.9 24.4 99 0.1 SW 4 17 2 9 1007.8 1007.8 57.6
23/12:30am 24.1 28.6 23.9 99 0.1 SW 7 13 4 7 1007.6 1007.6 57.4
23/12:00am 24.1 27.0 23.8 98 0.2 S 15 32 8 17 1008.3 1008.3 45.0
 
Date/Time
CST
Temp
°C
App
Temp
°C
Dew
Point
°C
Rel
Hum
%
Delta-T
°C
Wind Press
QNH
hPa
Press
MSL
hPa
Rain since
9am
mm
Dir  Spd
km/h
Gust
km/h
Spd
kts
Gust
kts
22/11:30pm 25.5 30.6 24.6 95 0.6 SE 6 17 3 9 1006.9 1006.9 9.4
22/11:00pm 26.0 28.5 22.5 81 2.4 SE 13 26 7 14 1007.2 1007.2 9.0
22/10:30pm 30.5 36.0 26.7 80 2.7 WSW 11 24 6 13 1007.3 1007.3 9.0
22/10:00pm 30.3 34.9 26.5 80 2.7 W 15 24 8 13 1006.8 1006.8 9.0
22/09:30pm 29.8 35.0 26.8 84 2.2 W 13 22 7 12 1006.5 1006.5 9.0
22/09:00pm 29.6 34.6 26.6 84 2.2 W 13 22 7 12 1006.4 1006.4 9.0
22/08:30pm 29.4 34.3 26.4 84 2.1 WNW 13 24 7 13 1006.3 1006.3 9.0
22/08:00pm 29.3 34.5 26.3 84 2.1 WNW 11 20 6 11 1005.9 1005.9 9.0
22/07:30pm 29.1 33.8 25.5 81 2.5 WNW 11 19 6 10 1005.3 1005.3 9.0
22/07:00pm 29.0 34.1 25.6 82 2.4 WNW 9 20 5 11 1004.8 1004.8 9.0
22/06:30pm 28.9 33.7 25.1 80 2.7 WNW 9 19 5 10 1004.9 1004.9 9.0
22/06:00pm 29.2 33.6 25.0 78 3.0 WNW 11 22 6 12 1004.8 1004.8 9.0
22/05:30pm 29.1 33.4 24.9 78 2.9 NW 11 24 6 13 1004.4 1004.4 9.0
22/05:00pm 29.6 34.3 24.9 76 3.3 NW 9 19 5 10 1004.6 1004.6 9.0
22/04:30pm 29.7 33.4 23.9 71 4.0 NNW 11 20 6 11 1004.7 1004.7 9.0
22/04:00pm 30.1 34.2 24.5 72 3.9 NNW 11 20 6 11 1004.8 1004.8 9.0
22/03:30pm 28.7 32.1 24.0 76 3.3 NNW 13 22 7 12 1005.3 1005.3 9.0
22/03:00pm 29.4 32.0 24.0 72 3.7 NNW 17 28 9 15 1005.6 1005.6 9.0
22/02:30pm 30.1 33.8 25.2 75 3.5 NNW 15 26 8 14 1006.1 1006.1 9.0
22/02:00pm 29.6 33.6 25.1 77 3.2 NNW 13 26 7 14 1006.7 1006.7 9.0
22/01:30pm 29.3 32.7 24.6 76 3.3 N 15 24 8 13 1007.2 1007.2 9.0
22/01:00pm 28.8 32.5 25.2 81 2.5 NNW 15 24 8 13 1007.7 1007.7 9.0
22/12:30pm 28.3 32.9 25.3 84 2.1 N 11 20 6 11 1008.2 1008.2 9.0
22/12:00pm 26.1 30.6 25.2 95 0.6 NNE 11 19 6 10 1008.8 1008.8 9.0
22/11:30am 24.9 29.4 24.6 98 0.2 NNE 9 22 5 12 1009.6 1009.6 9.0
22/11:00am 25.5 30.0 25.2 98 0.2 NE 11 22 6 12 1009.5 1009.5 1.8
22/10:30am 24.7 27.2 24.4 98 0.2 ENE 19 30 10 16 1009.3 1009.3 1.4
22/10:00am 24.6 26.2 23.2 92 0.9 ENE 20 37 11 20 1009.6 1009.6 0.8
22/09:50am 25.1 26.8 22.4 85 1.8 ENE 17 39 9 21 1009.4 1009.4 0.0
22/09:30am 30.3 35.8 25.6 76 3.3 SW 7 19 4 10 1009.0 1009.0 0.0
22/09:00am 30.5 35.6 25.6 75 3.5 WSW 9 20 5 11 1008.3 1008.3 0.0
22/08:30am 30.6 33.6 25.2 73 3.8 WSW 19 33 10 18 1007.9 1007.9 0.0
22/08:00am 30.6 33.1 25.4 74 3.7 WSW 22 37 12 20 1007.4 1007.4 0.0
22/07:30am 30.5 32.8 25.6 75 3.5 WSW 24 41 13 22 1006.7 1006.7 0.0
22/07:00am 30.4 33.5 25.7 76 3.3 W 20 32 11 17 1006.4 1006.4 0.0
22/06:30am 30.3 33.9 25.6 76 3.3 W 17 28 9 15 1006.3 1006.3 0.0
22/06:00am 30.3 33.9 25.6 76 3.3 W 17 30 9 16 1006.3 1006.3 0.0
22/05:30am 30.3 33.7 25.8 77 3.2 W 19 33 10 18 1005.9 1005.9 0.0
22/05:00am 30.2 34.3 26.4 80 2.7 W 17 30 9 16 1005.5 1005.5 0.0
22/04:30am 30.1 35.1 26.5 81 2.6 W 13 24 7 13 1005.6 1005.6 0.0
22/04:00am 30.1 34.7 26.5 81 2.6 W 15 32 8 17 1005.8 1005.8 0.0
22/03:30am 30.1 34.7 26.5 81 2.6 W 15 28 8 15 1006.1 1006.1 0.0
22/03:00am 30.1 34.5 26.3 80 2.7 W 15 32 8 17 1006.1 1006.1 0.0
22/02:30am 30.0 34.5 26.4 81 2.6 W 15 26 8 14 1006.0 1006.0 0.0
22/02:00am 30.0 34.2 26.0 79 2.8 W 15 28 8 15 1005.8 1005.8 0.0
22/01:30am 29.7 34.3 25.9 80 2.7 W 13 22 7 12 1006.0 1006.0 0.0
22/01:00am 29.7 34.8 26.1 81 2.6 W 11 20 6 11 1006.5 1006.5 0.0
22/12:30am 29.9 34.5 25.9 79 2.8 W 13 26 7 14 1006.8 1006.8 0.0
22/12:00am 30.1 34.6 25.8 78 3.1 W 13 30 7 16 1007.1 1007.1 0.0
 
Date/Time
CST
Temp
°C
App
Temp
°C
Dew
Point
°C
Rel
Hum
%
Delta-T
°C
Wind Press
QNH
hPa
Press
MSL
hPa
Rain since
9am
mm
Dir  Spd
km/h
Gust
km/h
Spd
kts
Gust
kts
21/11:30pm 30.1 35.2 26.1 79 2.9 W 11 20 6 11 1007.5 1007.5 0.0
21/11:00pm 30.3 34.8 25.8 77 3.2 W 13 22 7 12 1007.8 1007.8 0.0
21/10:30pm 30.4 34.1 25.7 76 3.3 WSW 17 24 9 13 1007.8 1007.8 0.0
21/10:00pm 30.4 35.0 25.9 77 3.2 W 13 24 7 13 1007.9 1007.9 0.0
21/09:30pm 30.4 34.7 25.5 75 3.5 W 13 30 7 16 1007.5 1007.5 0.0
21/09:00pm 30.3 35.0 25.6 76 3.3 W 11 22 6 12 1007.4 1007.4 0.0

Latest Capital City Observations: Canberra | Sydney | Melbourne | Brisbane | Adelaide | Perth | Hobart | Darwin

Other formats

Comma delimited format used in spreadsheet applications
http://www.bom.gov.au/fwo/IDD60901/IDD60901.94116.axf

JavaScript Object Notation format (JSON) in row-major order
http://www.bom.gov.au/fwo/IDD60901/IDD60901.94116.json

Data quality

Most of these data are generated automatically and are frequently updated. Quality checks on data are not normally performed. It is possible for incorrect values to appear. Refer to information at About Latest Weather Observations and please check the disclaimer before using these data.